createdAt,value
2018-09-11T00:01:29.226Z,14.60
2018-09-11T00:03:57.449Z,14.60
2018-09-11T00:06:26.148Z,14.60
2018-09-11T00:08:54.338Z,14.70
2018-09-11T00:11:23.124Z,14.90
2018-09-11T00:13:52.336Z,15.10
2018-09-11T00:16:23.553Z,15.20
2018-09-11T00:18:51.709Z,15.20
2018-09-11T00:21:20.344Z,15.20
2018-09-11T00:23:49.307Z,15.20
2018-09-11T00:26:17.509Z,15.10
2018-09-11T00:28:46.476Z,15.00
2018-09-11T00:31:14.667Z,15.00
2018-09-11T00:33:42.864Z,14.90
2018-09-11T00:36:19.054Z,14.90
2018-09-11T00:38:47.718Z,14.90
2018-09-11T00:41:15.903Z,14.90
2018-09-11T00:43:47.006Z,14.90
2018-09-11T00:46:15.727Z,14.80
2018-09-11T00:48:47.859Z,14.90
2018-09-11T00:51:16.066Z,15.00
2018-09-11T00:53:46.261Z,14.90
2018-09-11T00:56:14.719Z,14.90
2018-09-11T00:58:44.713Z,14.80
2018-09-11T01:01:13.471Z,14.70
2018-09-11T01:03:46.361Z,14.60
2018-09-11T01:06:14.674Z,14.60
2018-09-11T01:08:42.912Z,14.50
2018-09-11T01:11:11.129Z,14.50
2018-09-11T01:13:39.303Z,14.50
2018-09-11T01:16:08.640Z,14.60
2018-09-11T01:18:45.332Z,14.60
2018-09-11T01:21:16.689Z,14.60
2018-09-11T01:23:45.505Z,14.40
2018-09-11T01:26:13.697Z,14.40
2018-09-11T01:28:41.911Z,14.30
2018-09-11T01:31:11.532Z,14.30
2018-09-11T01:33:39.700Z,14.30
2018-09-11T01:36:12.592Z,14.30
2018-09-11T01:38:42.216Z,14.20
2018-09-11T01:41:10.492Z,14.10
2018-09-11T01:43:39.706Z,14.10
2018-09-11T01:46:09.040Z,14.10
2018-09-11T01:48:38.821Z,14.00
2018-09-11T01:51:07.181Z,14.00
2018-09-11T01:53:35.688Z,14.00
2018-09-11T01:56:04.150Z,13.90
2018-09-11T01:58:32.904Z,13.80
2018-09-11T02:01:02.896Z,13.80
2018-09-11T02:03:33.555Z,13.80
2018-09-11T02:06:05.120Z,13.70
2018-09-11T02:08:34.247Z,13.70
2018-09-11T02:11:03.608Z,13.70
2018-09-11T02:13:31.778Z,13.60
2018-09-11T02:15:59.968Z,13.60
2018-09-11T02:18:28.169Z,13.60
2018-09-11T02:21:12.372Z,13.50
2018-09-11T02:23:40.729Z,13.60
2018-09-11T02:26:10.384Z,13.60
2018-09-11T02:28:38.585Z,13.60
2018-09-11T02:31:06.783Z,13.60
2018-09-11T02:33:35.968Z,13.60
2018-09-11T02:36:08.606Z,13.50
2018-09-11T02:38:38.540Z,13.40
2018-09-11T02:41:06.871Z,13.30
2018-09-11T02:43:35.706Z,13.30
2018-09-11T02:46:03.913Z,13.30
2018-09-11T02:48:32.121Z,13.20
2018-09-11T02:51:04.137Z,13.10
2018-09-11T02:53:32.824Z,13.10
2018-09-11T02:56:01.023Z,13.00
2018-09-11T02:58:29.276Z,13.00
2018-09-11T03:00:57.491Z,12.90
2018-09-11T03:03:25.703Z,12.90
2018-09-11T03:05:57.643Z,12.90
2018-09-11T03:08:25.964Z,12.80
2018-09-11T03:10:54.213Z,12.80
2018-09-11T03:13:22.420Z,12.90
2018-09-11T03:15:50.608Z,12.80
2018-09-11T03:18:18.833Z,12.80
2018-09-11T03:20:50.891Z,12.80
2018-09-11T03:23:19.253Z,12.80
2018-09-11T03:25:47.423Z,12.70
2018-09-11T03:28:15.704Z,12.70
2018-09-11T03:30:43.872Z,12.70
2018-09-11T03:33:12.072Z,12.60
2018-09-11T03:35:41.205Z,12.60
2018-09-11T03:38:10.008Z,12.60
2018-09-11T03:40:38.212Z,12.60
2018-09-11T03:43:06.441Z,12.60
2018-09-11T03:45:35.899Z,12.60
2018-09-11T03:48:05.179Z,12.60
2018-09-11T03:50:33.425Z,12.50
2018-09-11T03:53:01.669Z,12.50
2018-09-11T03:55:30.314Z,12.50
2018-09-11T03:57:59.319Z,12.50
2018-09-11T04:00:27.509Z,12.40
2018-09-11T04:02:55.741Z,12.40
2018-09-11T04:05:25.219Z,12.30
2018-09-11T04:07:53.401Z,12.40
2018-09-11T04:10:21.625Z,12.30
2018-09-11T04:12:50.179Z,12.30
2018-09-11T04:15:18.393Z,12.30
2018-09-11T04:17:46.628Z,12.20
2018-09-11T04:20:14.835Z,12.20
2018-09-11T04:22:43.647Z,12.20
2018-09-11T04:25:11.819Z,12.20
2018-09-11T04:27:40.649Z,12.20
2018-09-11T04:30:09.749Z,12.20
2018-09-11T04:32:37.911Z,12.30
2018-09-11T04:35:06.230Z,12.30
2018-09-11T04:37:34.941Z,12.30
2018-09-11T04:40:03.168Z,12.20
2018-09-11T04:42:31.420Z,12.20
2018-09-11T04:44:59.579Z,12.20
2018-09-11T04:47:28.300Z,12.20
2018-09-11T04:49:56.449Z,12.20
2018-09-11T04:52:24.679Z,12.30
2018-09-11T04:54:52.894Z,12.30
2018-09-11T04:57:21.173Z,12.30
2018-09-11T04:59:49.660Z,12.40
2018-09-11T05:07:14.388Z,12.60
2018-09-11T05:09:44.049Z,12.50
2018-09-11T05:12:12.295Z,12.50
2018-09-11T05:14:40.516Z,12.60
2018-09-11T05:17:09.727Z,12.70
2018-09-11T05:19:38.387Z,12.80
2018-09-11T05:22:07.575Z,12.90
2018-09-11T05:24:35.800Z,13.30
2018-09-11T05:27:04.476Z,13.90
2018-09-11T05:29:33.298Z,14.60
2018-09-11T05:32:01.523Z,15.00
2018-09-11T05:34:29.745Z,15.30
2018-09-11T05:36:57.971Z,15.60
2018-09-11T05:39:27.254Z,15.40
2018-09-11T05:41:55.436Z,15.10
2018-09-11T05:44:24.745Z,14.70
2018-09-11T05:46:53.023Z,14.60
2018-09-11T05:49:21.513Z,14.50
2018-09-11T05:51:51.168Z,14.40
2018-09-11T05:54:21.160Z,14.50
2018-09-11T05:56:50.228Z,14.70
2018-09-11T05:59:18.455Z,14.80
2018-09-11T06:01:46.707Z,15.00
2018-09-11T06:04:14.925Z,15.10
2018-09-11T06:06:43.247Z,15.30
2018-09-11T06:09:13.509Z,15.40
2018-09-11T06:11:43.556Z,15.50
2018-09-11T06:14:11.848Z,15.60
2018-09-11T06:16:40.103Z,15.80
2018-09-11T06:19:08.332Z,15.70
2018-09-11T06:21:37.843Z,15.90
2018-09-11T06:24:07.404Z,16.00
2018-09-11T06:26:36.976Z,16.20
2018-09-11T06:29:05.915Z,16.30
2018-09-11T06:31:34.140Z,16.40
2018-09-11T06:34:03.927Z,16.50
2018-09-11T06:36:32.447Z,16.60
2018-09-11T06:39:04.172Z,16.80
2018-09-11T06:41:33.379Z,16.80
2018-09-11T06:44:01.584Z,16.80
2018-09-11T06:46:30.400Z,16.80
2018-09-11T06:49:00.009Z,16.80
2018-09-11T06:51:29.135Z,16.90
2018-09-11T06:54:01.261Z,16.90
2018-09-11T06:56:29.888Z,17.00
2018-09-11T06:58:59.051Z,17.00
2018-09-11T07:01:28.107Z,17.10
2018-09-11T07:03:57.334Z,17.20
2018-09-11T07:06:25.533Z,17.40
2018-09-11T07:08:54.541Z,17.40
2018-09-11T07:11:31.441Z,17.50
2018-09-11T07:14:00.327Z,17.60
2018-09-11T07:16:28.544Z,17.70
2018-09-11T07:18:56.755Z,17.80
2018-09-11T07:21:25.487Z,17.90
2018-09-11T07:23:53.777Z,18.10
2018-09-11T07:26:22.709Z,18.20
2018-09-11T07:28:50.913Z,18.20
2018-09-11T07:31:19.201Z,18.30
2018-09-11T07:33:49.201Z,18.40
2018-09-11T07:36:17.579Z,18.50
2018-09-11T07:38:45.761Z,18.60
2018-09-11T07:41:18.276Z,18.80
2018-09-11T07:43:46.460Z,18.80
2018-09-11T07:46:15.211Z,18.90
2018-09-11T07:48:43.409Z,19.10
2018-09-11T07:51:11.668Z,19.20
2018-09-11T07:53:41.584Z,19.20
2018-09-11T07:56:10.724Z,19.30
2018-09-11T07:58:38.931Z,19.40
2018-09-11T08:01:07.107Z,19.50
2018-09-11T08:03:35.693Z,19.60
2018-09-11T08:06:04.680Z,19.70
2018-09-11T08:08:32.897Z,19.70
2018-09-11T08:11:01.104Z,19.90
2018-09-11T08:13:29.305Z,20.00
2018-09-11T08:15:58.865Z,19.90
2018-09-11T08:18:27.096Z,20.00
2018-09-11T08:20:55.279Z,20.10
2018-09-11T08:23:23.480Z,20.30
2018-09-11T08:25:54.752Z,20.40
2018-09-11T08:28:23.322Z,20.40
2018-09-11T08:30:51.853Z,20.50
2018-09-11T08:33:20.739Z,20.70
2018-09-11T08:35:48.964Z,20.70
2018-09-11T08:38:17.091Z,20.80
2018-09-11T08:40:48.302Z,20.60
2018-09-11T08:43:16.636Z,20.40
2018-09-11T08:45:45.866Z,20.50
2018-09-11T08:48:14.388Z,20.60
2018-09-11T08:50:43.164Z,20.60
2018-09-11T08:53:12.028Z,20.80
2018-09-11T08:55:41.792Z,20.80
2018-09-11T08:58:09.994Z,20.90
2018-09-11T09:00:38.213Z,20.80
2018-09-11T09:03:06.502Z,20.80
2018-09-11T09:05:35.651Z,20.80
2018-09-11T09:08:03.865Z,20.90
2018-09-11T09:10:32.068Z,21.20
2018-09-11T09:13:04.418Z,21.00
2018-09-11T09:15:33.064Z,21.10
2018-09-11T09:18:01.287Z,21.20
2018-09-11T09:20:29.576Z,21.20
2018-09-11T09:22:57.805Z,21.40
2018-09-11T09:25:26.019Z,21.60
2018-09-11T09:27:57.069Z,21.60
2018-09-11T09:30:26.555Z,21.60
2018-09-11T09:32:54.923Z,21.90
2018-09-11T09:35:23.533Z,21.90
2018-09-11T09:37:51.704Z,21.90
2018-09-11T09:40:19.920Z,21.80
2018-09-11T09:42:48.168Z,21.80
2018-09-11T09:45:17.309Z,21.90
2018-09-11T09:47:46.388Z,21.90
2018-09-11T09:50:14.588Z,21.90
2018-09-11T09:52:42.836Z,22.20
2018-09-11T09:55:11.006Z,22.30
2018-09-11T09:57:43.140Z,22.40
2018-09-11T10:00:11.356Z,22.60
2018-09-11T10:02:39.579Z,22.50
2018-09-11T10:05:07.771Z,22.60
2018-09-11T10:07:36.877Z,22.60
2018-09-11T10:10:06.050Z,22.80
2018-09-11T10:12:42.365Z,23.00
2018-09-11T10:15:10.544Z,23.10
2018-09-11T10:17:38.823Z,23.10
2018-09-11T10:20:06.982Z,22.80
2018-09-11T10:22:35.239Z,22.90
2018-09-11T10:25:03.434Z,23.00
2018-09-11T10:27:44.080Z,23.20
2018-09-11T10:30:12.140Z,23.40
2018-09-11T10:32:40.355Z,23.60
2018-09-11T10:35:08.562Z,23.60
2018-09-11T10:37:36.805Z,23.60
2018-09-11T10:40:05.180Z,23.70
2018-09-11T10:42:37.342Z,23.50
2018-09-11T10:45:05.768Z,23.50
2018-09-11T10:47:33.900Z,23.20
2018-09-11T10:50:02.153Z,23.50
2018-09-11T10:52:30.328Z,23.50
2018-09-11T10:54:58.540Z,23.30
2018-09-11T10:57:26.759Z,23.20
2018-09-11T10:59:55.340Z,23.10
2018-09-11T11:02:23.560Z,23.00
2018-09-11T11:04:51.793Z,23.10
2018-09-11T11:07:20.017Z,23.20
2018-09-11T11:09:48.260Z,23.20
2018-09-11T11:12:16.645Z,23.30
2018-09-11T11:14:44.840Z,23.40
2018-09-11T11:17:13.658Z,23.60
2018-09-11T11:19:42.540Z,23.90
2018-09-11T11:22:10.729Z,24.00
2018-09-11T11:24:38.932Z,24.00
2018-09-11T11:27:08.105Z,23.90
2018-09-11T11:29:36.264Z,23.80
2018-09-11T11:32:04.464Z,23.80
2018-09-11T11:34:32.644Z,23.80
2018-09-11T11:37:01.091Z,23.80
2018-09-11T11:39:30.125Z,24.00
2018-09-11T11:42:00.181Z,24.00
2018-09-11T11:44:28.504Z,23.90
2018-09-11T11:46:56.931Z,23.90
2018-09-11T11:49:26.032Z,24.10
2018-09-11T11:51:54.232Z,24.30
2018-09-11T11:54:22.480Z,24.50
2018-09-11T11:56:50.908Z,24.60
2018-09-11T11:59:22.820Z,24.70
2018-09-11T12:01:51.043Z,24.40
2018-09-11T12:04:20.501Z,24.40
2018-09-11T12:06:48.715Z,24.40
2018-09-11T12:09:17.821Z,24.60
2018-09-11T12:11:45.998Z,24.50
2018-09-11T12:14:18.012Z,24.40
2018-09-11T12:16:56.779Z,24.40
2018-09-11T12:19:25.496Z,24.40
2018-09-11T12:21:55.440Z,24.40
2018-09-11T12:24:23.637Z,24.70
2018-09-11T12:26:52.168Z,24.80
2018-09-11T12:29:27.816Z,24.90
2018-09-11T12:31:56.015Z,25.00
2018-09-11T12:34:25.216Z,25.10
2018-09-11T12:36:53.416Z,25.30
2018-09-11T12:39:22.379Z,25.00
2018-09-11T12:41:50.583Z,25.30
2018-09-11T12:44:18.979Z,25.40
2018-09-11T12:46:51.006Z,25.60
2018-09-11T12:49:19.600Z,25.50
2018-09-11T12:51:48.216Z,25.30
2018-09-11T12:54:16.442Z,25.50
2018-09-11T12:56:44.779Z,25.60
2018-09-11T12:59:13.074Z,25.70
2018-09-11T13:01:41.275Z,25.60
2018-09-11T13:04:09.504Z,25.80
2018-09-11T13:06:37.712Z,26.00
2018-09-11T13:09:06.655Z,26.30
2018-09-11T13:11:35.368Z,26.20
2018-09-11T13:14:03.621Z,25.90
2018-09-11T13:16:44.237Z,25.80
2018-09-11T13:19:12.872Z,25.80
2018-09-11T13:21:41.090Z,25.90
2018-09-11T13:24:09.438Z,25.90
2018-09-11T13:26:44.488Z,25.90
2018-09-11T13:29:13.474Z,25.90
2018-09-11T13:31:46.077Z,25.80
2018-09-11T13:34:14.309Z,26.00
2018-09-11T13:36:43.234Z,26.20
2018-09-11T13:39:11.456Z,26.30
2018-09-11T13:41:39.656Z,26.20
2018-09-11T13:44:09.484Z,25.90
2018-09-11T13:46:43.021Z,25.80
2018-09-11T13:49:11.232Z,26.00
2018-09-11T13:51:40.020Z,26.00
2018-09-11T13:54:08.256Z,26.20
2018-09-11T13:56:36.458Z,26.30
2018-09-11T13:59:05.273Z,26.30
2018-09-11T14:01:41.797Z,26.30
2018-09-11T14:04:10.270Z,26.20
2018-09-11T14:06:39.874Z,26.30
2018-09-11T14:09:10.164Z,26.30
2018-09-11T14:11:38.358Z,26.20
2018-09-11T14:14:06.592Z,26.40
2018-09-11T14:16:35.208Z,26.40
2018-09-11T14:19:04.436Z,26.50
2018-09-11T14:21:34.083Z,26.50
2018-09-11T14:24:02.288Z,26.50
2018-09-11T14:26:30.640Z,26.60
2018-09-11T14:28:58.819Z,26.60
2018-09-11T14:31:30.833Z,26.60
2018-09-11T14:33:59.206Z,26.60
2018-09-11T14:36:27.459Z,26.50
2018-09-11T14:38:55.666Z,26.50
2018-09-11T14:41:23.857Z,26.60
2018-09-11T14:43:52.033Z,26.40
2018-09-11T14:46:20.217Z,26.30
2018-09-11T14:48:48.481Z,26.40
2018-09-11T14:51:16.716Z,26.30
2018-09-11T14:53:45.552Z,26.30
2018-09-11T14:56:13.746Z,26.20
2018-09-11T14:58:41.901Z,26.20
2018-09-11T15:01:10.107Z,26.30
2018-09-11T15:03:38.867Z,26.40
2018-09-11T15:06:07.084Z,26.20
2018-09-11T15:08:35.380Z,26.20
2018-09-11T15:11:05.360Z,26.10
2018-09-11T15:13:33.810Z,26.00
2018-09-11T15:16:01.969Z,26.10
2018-09-11T15:18:30.193Z,26.20
2018-09-11T15:20:59.287Z,26.30
2018-09-11T15:23:27.526Z,26.30
2018-09-11T15:25:55.721Z,26.10
2018-09-11T15:28:24.968Z,26.00
2018-09-11T15:30:53.179Z,26.00
2018-09-11T15:33:21.363Z,26.00
2018-09-11T15:35:49.588Z,26.10
2018-09-11T15:38:17.771Z,26.30
2018-09-11T15:40:45.999Z,26.30
2018-09-11T15:43:14.297Z,26.30
2018-09-11T15:45:42.482Z,26.30
2018-09-11T15:48:10.660Z,26.20
2018-09-11T15:50:38.921Z,26.30
2018-09-11T15:53:07.299Z,26.30
2018-09-11T15:55:35.550Z,26.10
2018-09-11T15:58:03.779Z,26.00
2018-09-11T16:00:32.022Z,25.90
2018-09-11T16:03:00.850Z,25.80
2018-09-11T16:05:29.913Z,25.90
2018-09-11T16:07:58.363Z,26.00
2018-09-11T16:10:26.515Z,26.00
2018-09-11T16:12:54.733Z,25.90
2018-09-11T16:15:23.225Z,25.90
2018-09-11T16:17:51.404Z,25.90
2018-09-11T16:20:20.077Z,25.90
2018-09-11T16:22:48.324Z,25.90
2018-09-11T16:25:16.571Z,25.80
2018-09-11T16:27:44.792Z,25.80
2018-09-11T16:30:13.085Z,25.70
2018-09-11T16:32:42.664Z,25.70
2018-09-11T16:35:11.723Z,25.60
2018-09-11T16:37:39.936Z,25.60
2018-09-11T16:40:08.513Z,25.60
2018-09-11T16:42:37.020Z,25.50
2018-09-11T16:45:06.091Z,25.40
2018-09-11T16:47:36.251Z,25.40
2018-09-11T16:50:04.508Z,25.40
2018-09-11T16:52:32.772Z,25.30
2018-09-11T16:55:00.980Z,25.30
2018-09-11T16:57:29.164Z,25.20
2018-09-11T16:59:57.392Z,25.20
2018-09-11T17:02:26.961Z,25.10
2018-09-11T17:04:55.172Z,25.00
2018-09-11T17:07:25.646Z,24.90
2018-09-11T17:09:53.930Z,24.80
2018-09-11T17:12:22.188Z,24.70
2018-09-11T17:14:51.132Z,24.60
2018-09-11T17:17:19.798Z,25.00
2018-09-11T17:19:53.296Z,25.40
2018-09-11T17:22:23.482Z,25.30
2018-09-11T17:24:51.696Z,25.30
2018-09-11T17:27:20.568Z,25.10
2018-09-11T17:29:48.829Z,24.80
2018-09-11T17:32:18.084Z,24.40
2018-09-11T17:34:49.099Z,24.00
2018-09-11T17:37:18.336Z,23.70
2018-09-11T17:39:46.536Z,23.40
2018-09-11T17:42:14.728Z,23.20
2018-09-11T17:44:43.088Z,22.90
2018-09-11T17:47:11.272Z,22.70
2018-09-11T17:49:43.333Z,22.50
2018-09-11T17:52:12.796Z,22.40
2018-09-11T17:54:42.138Z,22.20
2018-09-11T17:57:10.288Z,22.00
2018-09-11T17:59:39.360Z,21.90
2018-09-11T18:02:09.092Z,21.70
2018-09-11T18:04:37.290Z,21.60
2018-09-11T18:07:06.547Z,21.40
2018-09-11T18:09:34.985Z,21.20
2018-09-11T18:12:04.804Z,21.00
2018-09-11T18:14:34.988Z,20.80
2018-09-11T18:17:04.472Z,20.60
2018-09-11T18:19:33.620Z,20.50
2018-09-11T18:22:01.875Z,20.30
2018-09-11T18:24:30.505Z,20.20
2018-09-11T18:27:00.492Z,20.20
2018-09-11T18:29:29.887Z,20.00
2018-09-11T18:31:58.694Z,19.90
2018-09-11T18:34:27.148Z,19.90
2018-09-11T18:36:55.346Z,19.80
2018-09-11T18:39:24.396Z,19.80
2018-09-11T18:41:52.591Z,19.70
2018-09-11T18:44:21.895Z,19.60
2018-09-11T18:46:50.096Z,19.50
2018-09-11T18:49:18.306Z,19.40
2018-09-11T18:51:47.246Z,19.50
2018-09-11T18:54:15.644Z,19.40
2018-09-11T18:56:43.962Z,19.30
2018-09-11T18:59:12.146Z,19.10
2018-09-11T19:01:40.394Z,19.00
2018-09-11T19:04:08.940Z,18.90
2018-09-11T19:06:40.384Z,18.80
2018-09-11T19:09:10.868Z,18.70
2018-09-11T19:11:39.501Z,18.70
2018-09-11T19:14:08.545Z,18.70
2018-09-11T19:16:37.090Z,18.60
2018-09-11T19:19:05.447Z,18.60
2018-09-11T19:21:42.532Z,18.40
2018-09-11T19:24:11.944Z,18.40
2018-09-11T19:26:40.795Z,18.40
2018-09-11T19:29:09.078Z,18.30
2018-09-11T19:31:37.336Z,18.20
2018-09-11T19:34:05.922Z,18.20
2018-09-11T19:36:36.957Z,18.20
2018-09-11T19:39:07.289Z,18.00
2018-09-11T19:41:43.200Z,18.00
2018-09-11T19:44:12.951Z,17.90
2018-09-11T19:46:41.276Z,17.80
2018-09-11T19:49:11.733Z,17.70
2018-09-11T19:51:43.525Z,17.60
2018-09-11T19:54:13.733Z,17.60
2018-09-11T19:56:42.005Z,17.60
2018-09-11T19:59:11.109Z,17.50
2018-09-11T20:01:39.895Z,17.30
2018-09-11T20:04:08.667Z,17.20
2018-09-11T20:06:36.957Z,17.10
2018-09-11T20:09:09.619Z,17.20
2018-09-11T20:11:38.203Z,17.10
2018-09-11T20:14:06.896Z,17.00
2018-09-11T20:16:36.208Z,17.00
2018-09-11T20:19:05.101Z,17.10
2018-09-11T20:21:36.548Z,17.20
2018-09-11T20:24:09.019Z,17.20
2018-09-11T20:26:37.295Z,17.20
2018-09-11T20:29:06.152Z,17.10
2018-09-11T20:31:35.089Z,17.00
2018-09-11T20:34:03.319Z,17.00
2018-09-11T20:36:31.527Z,16.80
2018-09-11T20:39:00.008Z,16.80
2018-09-11T20:41:29.123Z,16.80
2018-09-11T20:43:59.036Z,17.00
2018-09-11T20:46:27.873Z,17.00
2018-09-11T20:48:57.100Z,17.00
2018-09-11T20:51:27.606Z,17.10
2018-09-11T20:53:59.608Z,17.00
2018-09-11T20:56:28.240Z,16.80
2018-09-11T20:58:56.565Z,16.70
2018-09-11T21:01:25.794Z,16.60
2018-09-11T21:03:57.054Z,16.50
2018-09-11T21:06:27.391Z,16.40
2018-09-11T21:09:01.554Z,16.30
2018-09-11T21:11:32.340Z,16.40
2018-09-11T21:14:02.024Z,16.30
2018-09-11T21:16:33.795Z,16.20
2018-09-11T21:19:02.988Z,16.20
2018-09-11T21:21:32.419Z,16.20
2018-09-11T21:24:02.113Z,16.30
2018-09-11T21:26:31.873Z,16.20
2018-09-11T21:29:01.606Z,16.10
2018-09-11T21:31:31.704Z,16.00
2018-09-11T21:34:00.930Z,15.90
2018-09-11T21:36:30.141Z,15.80
2018-09-11T21:38:59.231Z,15.70
2018-09-11T21:41:27.825Z,15.60
2018-09-11T21:43:56.028Z,15.50
2018-09-11T21:46:24.431Z,15.50
2018-09-11T21:48:53.253Z,15.40
2018-09-11T21:51:21.765Z,15.40
2018-09-11T21:53:50.020Z,15.30
2018-09-11T21:56:21.465Z,15.20
2018-09-11T21:58:50.232Z,15.20
2018-09-11T22:01:25.268Z,15.10
2018-09-11T22:03:54.146Z,15.20
2018-09-11T22:06:23.354Z,15.20
2018-09-11T22:08:55.242Z,15.20
2018-09-11T22:11:23.521Z,15.30
2018-09-11T22:13:53.389Z,15.50
2018-09-11T22:16:22.010Z,15.60
2018-09-11T22:18:51.205Z,15.50
2018-09-11T22:21:20.891Z,15.40
2018-09-11T22:23:49.424Z,15.40
2018-09-11T22:26:18.250Z,15.30
2018-09-11T22:28:47.380Z,15.30
2018-09-11T22:31:19.312Z,15.20
2018-09-11T22:33:48.422Z,15.10
2018-09-11T22:36:16.819Z,15.10
2018-09-11T22:38:47.325Z,15.00
2018-09-11T22:41:16.012Z,15.10
2018-09-11T22:43:45.179Z,15.00
2018-09-11T22:46:15.904Z,15.00
2018-09-11T22:48:44.414Z,15.00
2018-09-11T22:51:15.920Z,15.00
2018-09-11T22:53:44.945Z,14.90
2018-09-11T22:56:16.481Z,14.90
2018-09-11T22:58:44.861Z,14.80
2018-09-11T23:01:13.304Z,14.80
2018-09-11T23:03:41.860Z,14.80
2018-09-11T23:06:10.700Z,14.70
2018-09-11T23:08:38.908Z,14.60
2018-09-11T23:11:08.072Z,14.50
2018-09-11T23:13:36.360Z,14.50
2018-09-11T23:16:04.624Z,14.40
2018-09-11T23:18:32.849Z,14.40
2018-09-11T23:21:02.053Z,14.40
2018-09-11T23:23:30.264Z,14.30
2018-09-11T23:25:58.455Z,14.30
2018-09-11T23:28:27.663Z,14.30
2018-09-11T23:30:55.895Z,14.30
2018-09-11T23:33:24.229Z,14.40
2018-09-11T23:35:53.140Z,14.30
2018-09-11T23:38:21.354Z,14.30
2018-09-11T23:40:52.869Z,14.20
2018-09-11T23:43:29.184Z,14.20
2018-09-11T23:45:57.476Z,14.20
2018-09-11T23:48:25.708Z,14.30
2018-09-11T23:50:54.101Z,14.30
2018-09-11T23:53:22.312Z,14.30
2018-09-11T23:55:57.206Z,14.20
2018-09-11T23:58:25.407Z,14.10
